x

Cedar Key, Fl (cdrf1) Weather Station

11:00am - Sat 22nd Jul 2017 All times are EDT. -4 hours from GMT.

  • Wind
    8mph, 9mph gusts
  • Air Temp 83°f
  • Sea Pressure 1019.1mb
  • Cedar Key, Fl
  • Cedar Key, Fl

More Historic Weather Station data

Upgrade to MSW Pro to gain access to the past 30 days of data for over 8000 Wavebouys and Weather Stations around the globe.

Join Pro

Comparision Forecast

View Surf forecast
   
Sat 07/22 11:00am 8 9 mph 1019.1mb 83f
10:00am 9 11 mph 1018.8mb 82f
9:00am 8 9 mph 1018.7mb 80f
8:00am 15 18 mph 1018.4mb 80f
7:00am  -  2 mph 1017.2mb 78f
6:00am 7 10 mph 1016.8mb 79f
5:00am 5 7 mph 1016.2mb 84f
4:00am 6 7 mph 1016mb 84f
3:00am 7 9 mph 1016.5mb 85f
2:00am 1 2 mph 1016.9mb 82f
1:00am 8 10 mph 1017.8mb 80f
12:00am 6 9 mph 1018.1mb 85f
Fri 07/21 11:00pm 6 7 mph 1017.9mb 84f
10:00pm 5 7 mph 1017.8mb 81f
9:00pm 7 10 mph 1017.2mb 85f
8:00pm 6 8 mph 1016.8mb 85f
7:00pm 8 11 mph 1016.7mb 86f
6:00pm 8 9 mph 1017.1mb 87f
5:00pm 9 11 mph 1017.3mb 86f
4:00pm 7 9 mph 1016.8mb 87f
3:00pm 7 9 mph 1017.3mb 86f
2:00pm 6 8 mph 1018mb 85f
1:00pm 6 6 mph 1018.8mb 83f
12:00pm 6 6 mph 1018.9mb 83f
11:00am 5 6 mph 1019.2mb 82f
10:00am 6 6 mph 1018.7mb 82f
9:00am 7 8 mph 1018.4mb 81f
8:00am 7 9 mph 1017.8mb 80f
7:00am 9 10 mph 1017.2mb 79f
6:00am 8 10 mph 1016.7mb 77f
5:00am 8 9 mph 1016.5mb 77f
4:00am 9 11 mph 1016.5mb 76f
3:00am 3 5 mph 1016.8mb 75f
2:00am  -  1 mph 1016.7mb 80f
1:00am  -  1 mph 1017mb 78f
12:00am  -  1 mph 1017.5mb 79f
Thu 07/20 11:00pm 10 11 mph 1018.2mb 77f
10:00pm 18 21 mph 1019.2mb 75f
9:00pm 3 5 mph 1018.3mb 85f
8:00pm 3 6 mph 1017mb 85f
7:00pm 6 7 mph 1017.1mb 86f
6:00pm 5 8 mph 1016.6mb 86f
5:00pm 6 9 mph 1016.6mb 86f
4:00pm 6 8 mph 1017.3mb 87f
3:00pm 7 8 mph 1018.7mb 85f
2:00pm 6 9 mph 1019mb 83f
1:00pm 5 6 mph 1019.6mb 85f
12:00pm 3 5 mph 1020.1mb 84f
11:00am 2 3 mph 1019.8mb 83f
10:00am 5 5 mph 1019.7mb 83f
9:00am 2 2 mph 1019.5mb 82f
8:00am 6 6 mph 1019.3mb 80f
7:00am 6 7 mph 1019.1mb 79f
6:00am 7 8 mph 1018.6mb 77f
5:00am 3 5 mph 1018.2mb 82f
4:00am 7 8 mph 1018.4mb 82f
3:00am 9 10 mph 1018.5mb 82f
2:00am 9 10 mph 1018.9mb 81f
1:00am 1 2 mph 1019.1mb 83f
12:00am 3 5 mph 1019.1mb 82f
Wed 07/19 11:00pm 14 16 mph 1019.4mb 81f
10:00pm 13 14 mph 1019.3mb 81f
9:00pm 17 21 mph 1019.2mb 85f
8:00pm 5 7 mph 1018.4mb 87f
7:00pm 8 9 mph 1018mb 88f
6:00pm 8 11 mph 1017.7mb 87f
5:00pm 13 15 mph 1018.2mb 87f
4:00pm 8 11 mph 1018.7mb 88f
3:00pm 8 10 mph 1019.3mb 87f
2:00pm 5 6 mph 1019.8mb 86f
1:00pm 3 5 mph 1020.3mb 84f
12:00pm 3 5 mph 1020.7mb 84f
11:00am 3 5 mph 1020.5mb 82f
10:00am 5 6 mph 1020.7mb 80f
9:00am 6 6 mph 1020.2mb 79f
8:00am 6 7 mph 1019.8mb 78f
7:00am 5 6 mph 1019.3mb 79f
6:00am 5 6 mph 1019.1mb 77f
5:00am 7 8 mph 1018.5mb 80f
4:00am 9 10 mph 1018.4mb 79f
3:00am 6 6 mph 1018.7mb 82f
2:00am 5 6 mph 1019.2mb 81f
1:00am 7 8 mph 1019.5mb 81f
12:00am 5 6 mph 1019.9mb 82f
Tue 07/18 11:00pm 11 13 mph 1019.8mb 82f
10:00pm 13 15 mph 1019.4mb 82f
9:00pm 6 7 mph 1018.9mb 83f
8:00pm 2 2 mph 1018.7mb 84f
7:00pm 6 8 mph 1018.5mb 86f
6:00pm 2 5 mph 1018.5mb 86f
5:00pm 5 6 mph 1018.2mb 87f